sensor_id;sensor_type;location;lat;lon;timestamp;P1;durP1;ratioP1;P2;durP2;ratioP2
55728;SDS011;41633;39.720;2.910;2023-04-03T00:00:58;11.88;;;2.38;;
55728;SDS011;41633;39.720;2.910;2023-04-03T00:03:26;8.27;;;1.98;;
55728;SDS011;41633;39.720;2.910;2023-04-03T00:05:53;7.40;;;1.88;;
55728;SDS011;41633;39.720;2.910;2023-04-03T00:08:21;8.75;;;1.90;;
55728;SDS011;41633;39.720;2.910;2023-04-03T00:10:50;9.80;;;2.13;;
55728;SDS011;41633;39.720;2.910;2023-04-03T00:13:19;9.00;;;2.28;;
55728;SDS011;41633;39.720;2.910;2023-04-03T00:15:46;9.35;;;2.13;;
55728;SDS011;41633;39.720;2.910;2023-04-03T00:18:15;11.35;;;2.60;;
55728;SDS011;41633;39.720;2.910;2023-04-03T00:20:44;10.80;;;3.15;;
55728;SDS011;41633;39.720;2.910;2023-04-03T00:23:11;10.82;;;2.58;;
55728;SDS011;41633;39.720;2.910;2023-04-03T00:25:42;8.65;;;2.55;;
55728;SDS011;41633;39.720;2.910;2023-04-03T00:28:11;8.02;;;2.15;;
55728;SDS011;41633;39.720;2.910;2023-04-03T00:30:39;8.48;;;2.13;;
55728;SDS011;41633;39.720;2.910;2023-04-03T00:33:06;8.25;;;1.77;;
55728;SDS011;41633;39.720;2.910;2023-04-03T00:35:34;10.38;;;1.83;;
55728;SDS011;41633;39.720;2.910;2023-04-03T00:38:01;11.32;;;2.22;;
55728;SDS011;41633;39.720;2.910;2023-04-03T00:40:34;7.43;;;1.67;;
55728;SDS011;41633;39.720;2.910;2023-04-03T00:43:01;6.88;;;1.70;;
55728;SDS011;41633;39.720;2.910;2023-04-03T00:50:22;9.10;;;1.98;;
55728;SDS011;41633;39.720;2.910;2023-04-03T00:52:48;8.77;;;2.00;;
55728;SDS011;41633;39.720;2.910;2023-04-03T00:57:43;9.02;;;2.30;;
55728;SDS011;41633;39.720;2.910;2023-04-03T01:00:12;7.40;;;1.73;;
55728;SDS011;41633;39.720;2.910;2023-04-03T01:02:42;7.45;;;1.70;;
55728;SDS011;41633;39.720;2.910;2023-04-03T01:05:09;10.40;;;1.80;;
55728;SDS011;41633;39.720;2.910;2023-04-03T01:07:36;8.70;;;1.80;;
55728;SDS011;41633;39.720;2.910;2023-04-03T01:10:05;9.85;;;2.15;;
55728;SDS011;41633;39.720;2.910;2023-04-03T01:12:46;10.15;;;1.90;;
55728;SDS011;41633;39.720;2.910;2023-04-03T01:15:24;9.07;;;2.20;;
55728;SDS011;41633;39.720;2.910;2023-04-03T01:17:56;8.93;;;2.08;;
55728;SDS011;41633;39.720;2.910;2023-04-03T01:20:38;8.30;;;1.77;;
55728;SDS011;41633;39.720;2.910;2023-04-03T01:23:16;9.85;;;2.20;;
55728;SDS011;41633;39.720;2.910;2023-04-03T01:25:52;10.50;;;2.00;;
55728;SDS011;41633;39.720;2.910;2023-04-03T01:28:28;7.60;;;1.85;;
55728;SDS011;41633;39.720;2.910;2023-04-03T01:31:28;6.50;;;1.45;;
55728;SDS011;41633;39.720;2.910;2023-04-03T01:33:53;11.30;;;1.80;;
55728;SDS011;41633;39.720;2.910;2023-04-03T01:36:29;6.20;;;1.50;;
55728;SDS011;41633;39.720;2.910;2023-04-03T01:38:57;7.60;;;1.30;;
55728;SDS011;41633;39.720;2.910;2023-04-03T01:41:29;8.00;;;1.77;;
55728;SDS011;41633;39.720;2.910;2023-04-03T01:43:58;9.65;;;1.77;;
55728;SDS011;41633;39.720;2.910;2023-04-03T01:46:25;10.48;;;1.35;;
55728;SDS011;41633;39.720;2.910;2023-04-03T01:48:53;9.73;;;1.85;;
55728;SDS011;41633;39.720;2.910;2023-04-03T01:51:20;7.05;;;1.58;;
55728;SDS011;41633;39.720;2.910;2023-04-03T01:53:48;8.93;;;1.98;;
55728;SDS011;41633;39.720;2.910;2023-04-03T01:56:16;7.93;;;1.30;;
55728;SDS011;41633;39.720;2.910;2023-04-03T01:58:43;9.32;;;1.95;;
55728;SDS011;41633;39.720;2.910;2023-04-03T02:01:12;7.28;;;1.65;;
55728;SDS011;41633;39.720;2.910;2023-04-03T02:03:40;9.60;;;1.77;;
55728;SDS011;41633;39.720;2.910;2023-04-03T02:06:09;9.70;;;1.88;;
55728;SDS011;41633;39.720;2.910;2023-04-03T02:08:36;10.68;;;2.00;;
55728;SDS011;41633;39.720;2.910;2023-04-03T02:11:05;8.82;;;1.77;;
55728;SDS011;41633;39.720;2.910;2023-04-03T02:13:34;11.10;;;2.03;;
55728;SDS011;41633;39.720;2.910;2023-04-03T02:16:10;9.55;;;1.67;;
55728;SDS011;41633;39.720;2.910;2023-04-03T02:18:39;9.60;;;1.80;;
55728;SDS011;41633;39.720;2.910;2023-04-03T02:21:07;9.38;;;1.88;;
55728;SDS011;41633;39.720;2.910;2023-04-03T02:23:35;10.10;;;1.63;;
55728;SDS011;41633;39.720;2.910;2023-04-03T02:26:04;9.88;;;2.10;;
55728;SDS011;41633;39.720;2.910;2023-04-03T02:28:32;8.70;;;1.90;;
55728;SDS011;41633;39.720;2.910;2023-04-03T02:31:00;9.05;;;1.95;;
55728;SDS011;41633;39.720;2.910;2023-04-03T02:33:29;10.82;;;2.05;;
55728;SDS011;41633;39.720;2.910;2023-04-03T02:35:59;9.35;;;1.92;;
55728;SDS011;41633;39.720;2.910;2023-04-03T02:38:26;9.00;;;1.92;;
55728;SDS011;41633;39.720;2.910;2023-04-03T02:40:55;9.68;;;1.88;;
55728;SDS011;41633;39.720;2.910;2023-04-03T02:43:26;10.90;;;2.08;;
55728;SDS011;41633;39.720;2.910;2023-04-03T02:45:54;12.38;;;2.10;;
55728;SDS011;41633;39.720;2.910;2023-04-03T02:48:22;8.75;;;1.65;;
55728;SDS011;41633;39.720;2.910;2023-04-03T02:50:52;9.68;;;1.70;;
55728;SDS011;41633;39.720;2.910;2023-04-03T02:53:19;11.10;;;2.25;;
55728;SDS011;41633;39.720;2.910;2023-04-03T02:55:50;10.93;;;2.20;;
55728;SDS011;41633;39.720;2.910;2023-04-03T02:58:17;11.82;;;2.40;;
55728;SDS011;41633;39.720;2.910;2023-04-03T03:00:44;12.38;;;2.28;;
55728;SDS011;41633;39.720;2.910;2023-04-03T03:03:12;13.45;;;2.33;;
55728;SDS011;41633;39.720;2.910;2023-04-03T03:05:41;9.68;;;2.10;;
55728;SDS011;41633;39.720;2.910;2023-04-03T03:08:10;10.45;;;1.77;;
55728;SDS011;41633;39.720;2.910;2023-04-03T03:10:36;12.25;;;2.08;;
55728;SDS011;41633;39.720;2.910;2023-04-03T03:13:05;8.73;;;1.90;;
55728;SDS011;41633;39.720;2.910;2023-04-03T03:15:33;10.05;;;2.20;;
55728;SDS011;41633;39.720;2.910;2023-04-03T03:18:02;10.55;;;2.30;;
55728;SDS011;41633;39.720;2.910;2023-04-03T03:20:29;11.10;;;2.08;;
55728;SDS011;41633;39.720;2.910;2023-04-03T03:22:57;10.32;;;2.00;;
55728;SDS011;41633;39.720;2.910;2023-04-03T03:25:25;10.85;;;2.63;;
55728;SDS011;41633;39.720;2.910;2023-04-03T03:27:52;10.15;;;2.13;;
55728;SDS011;41633;39.720;2.910;2023-04-03T03:30:21;14.50;;;2.58;;
55728;SDS011;41633;39.720;2.910;2023-04-03T03:32:48;9.73;;;2.15;;
55728;SDS011;41633;39.720;2.910;2023-04-03T03:35:16;10.55;;;2.25;;
55728;SDS011;41633;39.720;2.910;2023-04-03T03:37:45;12.88;;;2.30;;
55728;SDS011;41633;39.720;2.910;2023-04-03T03:40:12;12.13;;;2.50;;
55728;SDS011;41633;39.720;2.910;2023-04-03T03:42:40;12.82;;;2.75;;
55728;SDS011;41633;39.720;2.910;2023-04-03T03:45:11;12.25;;;2.22;;
55728;SDS011;41633;39.720;2.910;2023-04-03T03:47:39;9.88;;;2.20;;
55728;SDS011;41633;39.720;2.910;2023-04-03T03:50:08;8.70;;;2.20;;
55728;SDS011;41633;39.720;2.910;2023-04-03T03:52:35;10.77;;;2.15;;
55728;SDS011;41633;39.720;2.910;2023-04-03T03:55:03;12.20;;;2.95;;
55728;SDS011;41633;39.720;2.910;2023-04-03T03:57:31;10.82;;;2.60;;
55728;SDS011;41633;39.720;2.910;2023-04-03T03:59:58;9.13;;;2.08;;
55728;SDS011;41633;39.720;2.910;2023-04-03T04:02:25;8.57;;;2.40;;
55728;SDS011;41633;39.720;2.910;2023-04-03T04:04:53;10.02;;;2.47;;
55728;SDS011;41633;39.720;2.910;2023-04-03T04:07:19;11.65;;;2.58;;
55728;SDS011;41633;39.720;2.910;2023-04-03T04:09:48;11.63;;;2.17;;
55728;SDS011;41633;39.720;2.910;2023-04-03T04:12:15;9.85;;;2.05;;
55728;SDS011;41633;39.720;2.910;2023-04-03T04:14:42;7.70;;;1.63;;
55728;SDS011;41633;39.720;2.910;2023-04-03T04:17:14;9.15;;;2.20;;
55728;SDS011;41633;39.720;2.910;2023-04-03T04:19:41;9.80;;;1.95;;
55728;SDS011;41633;39.720;2.910;2023-04-03T04:22:08;8.00;;;1.80;;
55728;SDS011;41633;39.720;2.910;2023-04-03T04:24:36;9.07;;;1.88;;
55728;SDS011;41633;39.720;2.910;2023-04-03T04:27:04;11.48;;;2.15;;
55728;SDS011;41633;39.720;2.910;2023-04-03T04:29:33;8.65;;;1.92;;
55728;SDS011;41633;39.720;2.910;2023-04-03T04:32:03;8.85;;;2.15;;
55728;SDS011;41633;39.720;2.910;2023-04-03T04:34:30;9.82;;;1.73;;
55728;SDS011;41633;39.720;2.910;2023-04-03T04:36:59;10.15;;;1.90;;
55728;SDS011;41633;39.720;2.910;2023-04-03T04:39:27;10.65;;;2.40;;
55728;SDS011;41633;39.720;2.910;2023-04-03T04:41:54;8.52;;;2.00;;
55728;SDS011;41633;39.720;2.910;2023-04-03T04:44:22;12.45;;;2.08;;
55728;SDS011;41633;39.720;2.910;2023-04-03T04:46:51;10.45;;;2.03;;
55728;SDS011;41633;39.720;2.910;2023-04-03T04:49:17;9.30;;;1.80;;
55728;SDS011;41633;39.720;2.910;2023-04-03T04:51:44;9.75;;;2.20;;
55728;SDS011;41633;39.720;2.910;2023-04-03T04:54:12;9.23;;;2.00;;
55728;SDS011;41633;39.720;2.910;2023-04-03T04:56:42;9.15;;;2.00;;
55728;SDS011;41633;39.720;2.910;2023-04-03T04:59:09;9.15;;;2.00;;
55728;SDS011;41633;39.720;2.910;2023-04-03T05:01:36;8.82;;;1.95;;
55728;SDS011;41633;39.720;2.910;2023-04-03T05:04:04;8.63;;;1.85;;
55728;SDS011;41633;39.720;2.910;2023-04-03T05:06:32;7.55;;;1.70;;
55728;SDS011;41633;39.720;2.910;2023-04-03T05:09:00;9.88;;;1.95;;
55728;SDS011;41633;39.720;2.910;2023-04-03T05:11:27;11.95;;;2.42;;
55728;SDS011;41633;39.720;2.910;2023-04-03T05:13:55;13.05;;;2.20;;
55728;SDS011;41633;39.720;2.910;2023-04-03T05:16:23;10.85;;;2.28;;
55728;SDS011;41633;39.720;2.910;2023-04-03T05:18:52;8.13;;;2.00;;
55728;SDS011;41633;39.720;2.910;2023-04-03T05:21:20;11.45;;;2.03;;
55728;SDS011;41633;39.720;2.910;2023-04-03T05:23:50;10.13;;;2.20;;
55728;SDS011;41633;39.720;2.910;2023-04-03T05:26:19;12.77;;;2.20;;
55728;SDS011;41633;39.720;2.910;2023-04-03T05:28:46;10.88;;;2.08;;
55728;SDS011;41633;39.720;2.910;2023-04-03T05:31:14;10.27;;;2.10;;
55728;SDS011;41633;39.720;2.910;2023-04-03T05:33:43;8.80;;;1.75;;
55728;SDS011;41633;39.720;2.910;2023-04-03T05:36:12;11.48;;;2.00;;
55728;SDS011;41633;39.720;2.910;2023-04-03T05:38:39;9.35;;;1.98;;
55728;SDS011;41633;39.720;2.910;2023-04-03T05:41:07;11.27;;;2.03;;
55728;SDS011;41633;39.720;2.910;2023-04-03T05:43:34;12.13;;;2.03;;
55728;SDS011;41633;39.720;2.910;2023-04-03T05:46:15;8.70;;;2.03;;
55728;SDS011;41633;39.720;2.910;2023-04-03T05:48:42;11.98;;;1.75;;
55728;SDS011;41633;39.720;2.910;2023-04-03T05:51:14;9.10;;;2.05;;
55728;SDS011;41633;39.720;2.910;2023-04-03T05:53:42;8.15;;;1.83;;
55728;SDS011;41633;39.720;2.910;2023-04-03T05:56:10;12.85;;;2.20;;
55728;SDS011;41633;39.720;2.910;2023-04-03T05:58:37;13.55;;;3.17;;
55728;SDS011;41633;39.720;2.910;2023-04-03T06:01:05;18.02;;;5.78;;
55728;SDS011;41633;39.720;2.910;2023-04-03T06:03:35;26.48;;;10.68;;
55728;SDS011;41633;39.720;2.910;2023-04-03T06:06:03;36.45;;;15.95;;
55728;SDS011;41633;39.720;2.910;2023-04-03T06:08:31;59.55;;;26.70;;
55728;SDS011;41633;39.720;2.910;2023-04-03T06:10:59;69.53;;;31.95;;
55728;SDS011;41633;39.720;2.910;2023-04-03T06:13:28;73.80;;;35.30;;
55728;SDS011;41633;39.720;2.910;2023-04-03T06:15:56;102.88;;;40.40;;
55728;SDS011;41633;39.720;2.910;2023-04-03T06:18:23;95.53;;;42.92;;
55728;SDS011;41633;39.720;2.910;2023-04-03T06:20:52;100.07;;;44.65;;
55728;SDS011;41633;39.720;2.910;2023-04-03T06:23:19;72.47;;;32.95;;
55728;SDS011;41633;39.720;2.910;2023-04-03T06:25:46;62.40;;;28.95;;
55728;SDS011;41633;39.720;2.910;2023-04-03T06:28:14;58.95;;;26.42;;
55728;SDS011;41633;39.720;2.910;2023-04-03T06:30:43;47.65;;;22.67;;
55728;SDS011;41633;39.720;2.910;2023-04-03T06:33:11;50.40;;;20.33;;
55728;SDS011;41633;39.720;2.910;2023-04-03T06:35:39;41.40;;;16.63;;
55728;SDS011;41633;39.720;2.910;2023-04-03T06:38:07;31.85;;;13.65;;
55728;SDS011;41633;39.720;2.910;2023-04-03T06:40:36;31.63;;;11.98;;
55728;SDS011;41633;39.720;2.910;2023-04-03T06:43:05;23.25;;;10.52;;
55728;SDS011;41633;39.720;2.910;2023-04-03T06:45:34;27.83;;;10.40;;
55728;SDS011;41633;39.720;2.910;2023-04-03T06:48:02;23.77;;;10.23;;
55728;SDS011;41633;39.720;2.910;2023-04-03T06:50:31;28.90;;;11.93;;
55728;SDS011;41633;39.720;2.910;2023-04-03T06:52:59;24.52;;;10.55;;
55728;SDS011;41633;39.720;2.910;2023-04-03T06:55:28;24.40;;;9.43;;
55728;SDS011;41633;39.720;2.910;2023-04-03T06:57:56;21.35;;;9.07;;
55728;SDS011;41633;39.720;2.910;2023-04-03T07:00:24;24.63;;;9.52;;
55728;SDS011;41633;39.720;2.910;2023-04-03T07:02:54;18.55;;;6.57;;
55728;SDS011;41633;39.720;2.910;2023-04-03T07:05:25;18.60;;;7.05;;
55728;SDS011;41633;39.720;2.910;2023-04-03T07:07:53;20.17;;;5.60;;
55728;SDS011;41633;39.720;2.910;2023-04-03T07:10:20;15.88;;;5.07;;
55728;SDS011;41633;39.720;2.910;2023-04-03T07:15:13;16.05;;;3.25;;
55728;SDS011;41633;39.720;2.910;2023-04-03T07:17:42;12.07;;;2.97;;
55728;SDS011;41633;39.720;2.910;2023-04-03T07:20:11;11.55;;;2.78;;
55728;SDS011;41633;39.720;2.910;2023-04-03T07:22:38;11.20;;;2.67;;
55728;SDS011;41633;39.720;2.910;2023-04-03T07:25:05;14.35;;;3.25;;
55728;SDS011;41633;39.720;2.910;2023-04-03T07:27:33;9.13;;;2.40;;
55728;SDS011;41633;39.720;2.910;2023-04-03T07:30:03;12.95;;;2.80;;
55728;SDS011;41633;39.720;2.910;2023-04-03T07:32:30;12.93;;;2.70;;
55728;SDS011;41633;39.720;2.910;2023-04-03T07:34:58;12.52;;;2.55;;
55728;SDS011;41633;39.720;2.910;2023-04-03T07:37:25;13.57;;;2.50;;
55728;SDS011;41633;39.720;2.910;2023-04-03T07:39:54;15.02;;;2.28;;
55728;SDS011;41633;39.720;2.910;2023-04-03T07:42:23;14.88;;;2.63;;
55728;SDS011;41633;39.720;2.910;2023-04-03T07:44:51;10.88;;;2.60;;
55728;SDS011;41633;39.720;2.910;2023-04-03T07:47:20;22.15;;;2.92;;
55728;SDS011;41633;39.720;2.910;2023-04-03T07:49:49;12.45;;;2.58;;
55728;SDS011;41633;39.720;2.910;2023-04-03T07:52:15;10.13;;;2.72;;
55728;SDS011;41633;39.720;2.910;2023-04-03T07:57:09;16.63;;;3.20;;
55728;SDS011;41633;39.720;2.910;2023-04-03T07:59:38;15.23;;;2.90;;
55728;SDS011;41633;39.720;2.910;2023-04-03T08:02:12;10.68;;;2.72;;
55728;SDS011;41633;39.720;2.910;2023-04-03T08:04:39;16.65;;;2.70;;
55728;SDS011;41633;39.720;2.910;2023-04-03T08:07:09;11.65;;;2.88;;
55728;SDS011;41633;39.720;2.910;2023-04-03T08:12:04;13.75;;;2.60;;
55728;SDS011;41633;39.720;2.910;2023-04-03T08:14:32;14.27;;;2.25;;
55728;SDS011;41633;39.720;2.910;2023-04-03T08:17:02;14.10;;;2.45;;
55728;SDS011;41633;39.720;2.910;2023-04-03T08:19:31;11.52;;;2.53;;
55728;SDS011;41633;39.720;2.910;2023-04-03T08:21:58;13.88;;;2.03;;
55728;SDS011;41633;39.720;2.910;2023-04-03T08:24:29;11.95;;;2.47;;
55728;SDS011;41633;39.720;2.910;2023-04-03T08:26:56;9.45;;;1.73;;
55728;SDS011;41633;39.720;2.910;2023-04-03T08:29:24;10.27;;;2.03;;
55728;SDS011;41633;39.720;2.910;2023-04-03T08:31:52;11.52;;;2.10;;
55728;SDS011;41633;39.720;2.910;2023-04-03T08:34:36;9.88;;;2.00;;
55728;SDS011;41633;39.720;2.910;2023-04-03T08:37:05;11.85;;;2.30;;
55728;SDS011;41633;39.720;2.910;2023-04-03T08:39:33;9.20;;;2.08;;
55728;SDS011;41633;39.720;2.910;2023-04-03T08:42:02;8.32;;;1.50;;
55728;SDS011;41633;39.720;2.910;2023-04-03T08:44:39;9.02;;;1.70;;
55728;SDS011;41633;39.720;2.910;2023-04-03T08:47:27;9.32;;;2.10;;
55728;SDS011;41633;39.720;2.910;2023-04-03T08:49:59;11.82;;;1.98;;
55728;SDS011;41633;39.720;2.910;2023-04-03T08:52:36;13.48;;;2.80;;
55728;SDS011;41633;39.720;2.910;2023-04-03T08:55:07;10.30;;;2.30;;
55728;SDS011;41633;39.720;2.910;2023-04-03T08:57:35;8.70;;;2.45;;
55728;SDS011;41633;39.720;2.910;2023-04-03T09:00:04;13.20;;;3.38;;
55728;SDS011;41633;39.720;2.910;2023-04-03T09:02:50;13.02;;;4.50;;
55728;SDS011;41633;39.720;2.910;2023-04-03T09:08:28;13.07;;;4.22;;
55728;SDS011;41633;39.720;2.910;2023-04-03T09:11:11;11.18;;;3.92;;
55728;SDS011;41633;39.720;2.910;2023-04-03T09:16:21;14.02;;;3.30;;
55728;SDS011;41633;39.720;2.910;2023-04-03T09:18:57;15.23;;;3.80;;
55728;SDS011;41633;39.720;2.910;2023-04-03T09:21:36;13.15;;;3.05;;
55728;SDS011;41633;39.720;2.910;2023-04-03T09:24:05;14.07;;;3.90;;
55728;SDS011;41633;39.720;2.910;2023-04-03T09:26:43;9.27;;;2.85;;
55728;SDS011;41633;39.720;2.910;2023-04-03T09:29:15;10.38;;;2.60;;
55728;SDS011;41633;39.720;2.910;2023-04-03T09:31:46;13.07;;;2.97;;
55728;SDS011;41633;39.720;2.910;2023-04-03T09:34:22;10.40;;;2.65;;
55728;SDS011;41633;39.720;2.910;2023-04-03T09:36:55;14.02;;;3.65;;
55728;SDS011;41633;39.720;2.910;2023-04-03T09:39:28;10.55;;;2.90;;
55728;SDS011;41633;39.720;2.910;2023-04-03T09:42:05;11.73;;;3.50;;
55728;SDS011;41633;39.720;2.910;2023-04-03T09:44:35;10.85;;;2.83;;
55728;SDS011;41633;39.720;2.910;2023-04-03T09:52:41;11.88;;;3.30;;
55728;SDS011;41633;39.720;2.910;2023-04-03T09:55:19;10.35;;;2.92;;
55728;SDS011;41633;39.720;2.910;2023-04-03T09:57:59;11.55;;;3.20;;
55728;SDS011;41633;39.720;2.910;2023-04-03T10:00:34;14.43;;;3.63;;
55728;SDS011;41633;39.720;2.910;2023-04-03T10:03:02;11.52;;;3.05;;
55728;SDS011;41633;39.720;2.910;2023-04-03T10:08:20;11.27;;;2.72;;
55728;SDS011;41633;39.720;2.910;2023-04-03T10:11:05;10.75;;;2.53;;
55728;SDS011;41633;39.720;2.910;2023-04-03T10:13:54;26.98;;;3.45;;
55728;SDS011;41633;39.720;2.910;2023-04-03T10:30:19;13.98;;;2.58;;
55728;SDS011;41633;39.720;2.910;2023-04-03T10:38:30;11.13;;;2.80;;
55728;SDS011;41633;39.720;2.910;2023-04-03T10:43:59;10.90;;;2.45;;
55728;SDS011;41633;39.720;2.910;2023-04-03T10:52:32;10.10;;;2.30;;
55728;SDS011;41633;39.720;2.910;2023-04-03T10:55:34;12.73;;;2.72;;
55728;SDS011;41633;39.720;2.910;2023-04-03T10:58:03;14.00;;;3.05;;
55728;SDS011;41633;39.720;2.910;2023-04-03T11:00:39;18.58;;;3.22;;
55728;SDS011;41633;39.720;2.910;2023-04-03T11:03:11;14.07;;;2.75;;
55728;SDS011;41633;39.720;2.910;2023-04-03T11:05:47;11.55;;;2.67;;
55728;SDS011;41633;39.720;2.910;2023-04-03T11:13:45;15.10;;;2.88;;
55728;SDS011;41633;39.720;2.910;2023-04-03T11:16:30;13.15;;;2.70;;
55728;SDS011;41633;39.720;2.910;2023-04-03T11:19:34;12.73;;;2.50;;
55728;SDS011;41633;39.720;2.910;2023-04-03T11:22:13;79.38;;;7.15;;
55728;SDS011;41633;39.720;2.910;2023-04-03T11:24:43;98.35;;;7.93;;
55728;SDS011;41633;39.720;2.910;2023-04-03T11:27:24;16.13;;;2.13;;
55728;SDS011;41633;39.720;2.910;2023-04-03T11:29:56;16.35;;;2.60;;
55728;SDS011;41633;39.720;2.910;2023-04-03T11:35:09;9.88;;;2.00;;
55728;SDS011;41633;39.720;2.910;2023-04-03T11:37:45;10.93;;;1.98;;
55728;SDS011;41633;39.720;2.910;2023-04-03T11:40:19;12.45;;;2.00;;
55728;SDS011;41633;39.720;2.910;2023-04-03T11:42:49;18.85;;;2.65;;
55728;SDS011;41633;39.720;2.910;2023-04-03T11:48:41;16.70;;;2.65;;
55728;SDS011;41633;39.720;2.910;2023-04-03T11:50:51;19.75;;;3.28;;
55728;SDS011;41633;39.720;2.910;2023-04-03T11:53:31;17.48;;;2.47;;
55728;SDS011;41633;39.720;2.910;2023-04-03T11:56:04;16.85;;;2.53;;
55728;SDS011;41633;39.720;2.910;2023-04-03T11:58:33;15.88;;;2.65;;
55728;SDS011;41633;39.720;2.910;2023-04-03T12:01:11;16.85;;;2.97;;
55728;SDS011;41633;39.720;2.910;2023-04-03T12:04:09;16.98;;;3.15;;
55728;SDS011;41633;39.720;2.910;2023-04-03T12:06:47;13.05;;;2.15;;
55728;SDS011;41633;39.720;2.910;2023-04-03T12:12:00;16.88;;;2.35;;
55728;SDS011;41633;39.720;2.910;2023-04-03T12:14:28;17.30;;;2.60;;
55728;SDS011;41633;39.720;2.910;2023-04-03T12:16:56;14.27;;;2.28;;
55728;SDS011;41633;39.720;2.910;2023-04-03T12:19:32;22.98;;;2.88;;
55728;SDS011;41633;39.720;2.910;2023-04-03T12:24:30;76.20;;;5.75;;
55728;SDS011;41633;39.720;2.910;2023-04-03T12:45:44;14.80;;;2.58;;
55728;SDS011;41633;39.720;2.910;2023-04-03T12:48:15;10.60;;;1.80;;
55728;SDS011;41633;39.720;2.910;2023-04-03T12:50:45;10.10;;;2.10;;
55728;SDS011;41633;39.720;2.910;2023-04-03T12:53:21;9.25;;;2.10;;
55728;SDS011;41633;39.720;2.910;2023-04-03T12:55:54;17.60;;;2.00;;
55728;SDS011;41633;39.720;2.910;2023-04-03T12:58:26;15.97;;;2.33;;
55728;SDS011;41633;39.720;2.910;2023-04-03T13:01:01;11.10;;;2.22;;
55728;SDS011;41633;39.720;2.910;2023-04-03T13:03:29;10.20;;;1.77;;
55728;SDS011;41633;39.720;2.910;2023-04-03T13:06:02;30.65;;;3.63;;
55728;SDS011;41633;39.720;2.910;2023-04-03T13:08:55;10.68;;;2.33;;
55728;SDS011;41633;39.720;2.910;2023-04-03T13:11:30;13.32;;;2.80;;
55728;SDS011;41633;39.720;2.910;2023-04-03T13:13:59;9.60;;;2.30;;
55728;SDS011;41633;39.720;2.910;2023-04-03T13:16:29;20.58;;;2.25;;
55728;SDS011;41633;39.720;2.910;2023-04-03T13:18:57;7.93;;;1.30;;
55728;SDS011;41633;39.720;2.910;2023-04-03T13:23:50;11.52;;;1.95;;
55728;SDS011;41633;39.720;2.910;2023-04-03T13:26:20;12.13;;;1.42;;
55728;SDS011;41633;39.720;2.910;2023-04-03T13:28:48;20.90;;;1.85;;
55728;SDS011;41633;39.720;2.910;2023-04-03T13:31:25;10.85;;;1.35;;
55728;SDS011;41633;39.720;2.910;2023-04-03T13:36:39;21.70;;;2.00;;
55728;SDS011;41633;39.720;2.910;2023-04-03T13:41:48;20.33;;;1.92;;
55728;SDS011;41633;39.720;2.910;2023-04-03T13:44:26;6.55;;;1.25;;
55728;SDS011;41633;39.720;2.910;2023-04-03T13:46:56;45.20;;;2.47;;
55728;SDS011;41633;39.720;2.910;2023-04-03T13:49:31;28.85;;;3.38;;
55728;SDS011;41633;39.720;2.910;2023-04-03T13:51:59;11.88;;;2.25;;
55728;SDS011;41633;39.720;2.910;2023-04-03T13:54:29;10.10;;;1.65;;
55728;SDS011;41633;39.720;2.910;2023-04-03T13:56:57;8.35;;;1.60;;
55728;SDS011;41633;39.720;2.910;2023-04-03T13:59:34;8.07;;;2.00;;
55728;SDS011;41633;39.720;2.910;2023-04-03T14:02:10;12.95;;;2.60;;
55728;SDS011;41633;39.720;2.910;2023-04-03T14:07:17;9.40;;;1.67;;
55728;SDS011;41633;39.720;2.910;2023-04-03T14:09:46;10.98;;;2.83;;
55728;SDS011;41633;39.720;2.910;2023-04-03T14:12:31;11.85;;;4.32;;
55728;SDS011;41633;39.720;2.910;2023-04-03T14:15:00;12.18;;;3.75;;
55728;SDS011;41633;39.720;2.910;2023-04-03T14:17:29;12.07;;;3.03;;
55728;SDS011;41633;39.720;2.910;2023-04-03T14:19:57;9.45;;;3.13;;
55728;SDS011;41633;39.720;2.910;2023-04-03T14:22:29;8.57;;;1.77;;
55728;SDS011;41633;39.720;2.910;2023-04-03T14:24:57;26.73;;;3.72;;
55728;SDS011;41633;39.720;2.910;2023-04-03T14:27:30;136.15;;;10.45;;
55728;SDS011;41633;39.720;2.910;2023-04-03T14:30:01;230.05;;;16.00;;
55728;SDS011;41633;39.720;2.910;2023-04-03T14:32:30;116.55;;;8.00;;
55728;SDS011;41633;39.720;2.910;2023-04-03T14:34:57;20.30;;;3.33;;
55728;SDS011;41633;39.720;2.910;2023-04-03T14:37:28;15.02;;;1.80;;
55728;SDS011;41633;39.720;2.910;2023-04-03T14:39:57;12.52;;;2.50;;
55728;SDS011;41633;39.720;2.910;2023-04-03T14:42:28;22.00;;;2.85;;
55728;SDS011;41633;39.720;2.910;2023-04-03T14:44:57;9.98;;;1.60;;
55728;SDS011;41633;39.720;2.910;2023-04-03T14:47:29;23.02;;;2.20;;
55728;SDS011;41633;39.720;2.910;2023-04-03T14:49:58;15.15;;;1.83;;
55728;SDS011;41633;39.720;2.910;2023-04-03T14:52:29;12.23;;;1.42;;
55728;SDS011;41633;39.720;2.910;2023-04-03T14:54:57;30.70;;;2.83;;
55728;SDS011;41633;39.720;2.910;2023-04-03T14:57:27;35.05;;;3.88;;
55728;SDS011;41633;39.720;2.910;2023-04-03T14:59:56;12.57;;;1.85;;
55728;SDS011;41633;39.720;2.910;2023-04-03T15:02:31;8.93;;;1.70;;
55728;SDS011;41633;39.720;2.910;2023-04-03T15:04:59;7.80;;;1.30;;
55728;SDS011;41633;39.720;2.910;2023-04-03T15:07:32;9.25;;;1.67;;
55728;SDS011;41633;39.720;2.910;2023-04-03T15:12:44;30.38;;;3.10;;
55728;SDS011;41633;39.720;2.910;2023-04-03T15:15:12;11.63;;;2.35;;
55728;SDS011;41633;39.720;2.910;2023-04-03T15:17:42;12.73;;;2.08;;
55728;SDS011;41633;39.720;2.910;2023-04-03T15:20:20;9.85;;;1.90;;
55728;SDS011;41633;39.720;2.910;2023-04-03T15:22:48;14.95;;;1.60;;
55728;SDS011;41633;39.720;2.910;2023-04-03T15:25:17;12.88;;;4.38;;
55728;SDS011;41633;39.720;2.910;2023-04-03T15:27:45;9.52;;;1.88;;
55728;SDS011;41633;39.720;2.910;2023-04-03T15:30:15;7.75;;;1.40;;
55728;SDS011;41633;39.720;2.910;2023-04-03T15:32:46;8.05;;;1.65;;
55728;SDS011;41633;39.720;2.910;2023-04-03T15:35:13;7.18;;;1.73;;
55728;SDS011;41633;39.720;2.910;2023-04-03T15:37:42;9.85;;;1.90;;
55728;SDS011;41633;39.720;2.910;2023-04-03T15:40:10;8.02;;;1.88;;
55728;SDS011;41633;39.720;2.910;2023-04-03T15:42:39;7.18;;;1.75;;
55728;SDS011;41633;39.720;2.910;2023-04-03T15:45:08;12.02;;;1.95;;
55728;SDS011;41633;39.720;2.910;2023-04-03T15:47:36;6.70;;;1.65;;
55728;SDS011;41633;39.720;2.910;2023-04-03T15:50:04;7.03;;;1.40;;
55728;SDS011;41633;39.720;2.910;2023-04-03T15:52:34;6.32;;;1.77;;
55728;SDS011;41633;39.720;2.910;2023-04-03T15:55:02;6.60;;;1.50;;
55728;SDS011;41633;39.720;2.910;2023-04-03T15:57:30;9.68;;;1.52;;
55728;SDS011;41633;39.720;2.910;2023-04-03T15:59:57;5.88;;;1.50;;
55728;SDS011;41633;39.720;2.910;2023-04-03T16:02:25;8.38;;;1.85;;
55728;SDS011;41633;39.720;2.910;2023-04-03T16:04:54;6.93;;;1.50;;
55728;SDS011;41633;39.720;2.910;2023-04-03T16:07:21;7.28;;;1.88;;
55728;SDS011;41633;39.720;2.910;2023-04-03T16:09:49;7.00;;;1.58;;
55728;SDS011;41633;39.720;2.910;2023-04-03T16:12:18;6.60;;;1.92;;
55728;SDS011;41633;39.720;2.910;2023-04-03T16:14:45;6.32;;;1.60;;
55728;SDS011;41633;39.720;2.910;2023-04-03T16:17:14;7.10;;;1.50;;
55728;SDS011;41633;39.720;2.910;2023-04-03T16:19:41;6.68;;;1.50;;
55728;SDS011;41633;39.720;2.910;2023-04-03T16:22:09;8.05;;;1.50;;
55728;SDS011;41633;39.720;2.910;2023-04-03T16:24:36;8.43;;;1.70;;
55728;SDS011;41633;39.720;2.910;2023-04-03T16:27:04;5.97;;;1.48;;
55728;SDS011;41633;39.720;2.910;2023-04-03T16:29:33;6.95;;;1.65;;
55728;SDS011;41633;39.720;2.910;2023-04-03T16:32:00;7.93;;;1.77;;
55728;SDS011;41633;39.720;2.910;2023-04-03T16:34:29;8.30;;;1.60;;
55728;SDS011;41633;39.720;2.910;2023-04-03T16:36:58;9.07;;;1.73;;
55728;SDS011;41633;39.720;2.910;2023-04-03T16:39:26;7.45;;;1.90;;
55728;SDS011;41633;39.720;2.910;2023-04-03T16:41:54;7.38;;;1.90;;